createdAt,value
2023-04-28T00:01:13.173Z,101160.13
2023-04-28T00:03:39.829Z,101155.09
2023-04-28T00:06:06.520Z,101159.66
2023-04-28T00:08:33.130Z,101158.94
2023-04-28T00:11:00.279Z,101157.97
2023-04-28T00:13:26.900Z,101162.63
2023-04-28T00:15:54.168Z,101154.88
2023-04-28T00:18:21.380Z,101154.09
2023-04-28T00:20:48.106Z,101155.50
2023-04-28T00:23:14.490Z,101155.09
2023-04-28T00:25:40.851Z,101163.38
2023-04-28T00:28:07.290Z,101169.44
2023-04-28T00:30:33.711Z,101168.44
2023-04-28T00:33:00.149Z,101167.22
2023-04-28T00:35:26.646Z,101172.66
2023-04-28T00:37:53.067Z,101172.50
2023-04-28T00:40:19.496Z,101174.44
2023-04-28T00:42:46.104Z,101177.44
2023-04-28T00:45:12.466Z,101177.41
2023-04-28T00:47:38.944Z,101176.59
2023-04-28T00:50:06.589Z,101171.94
2023-04-28T00:52:33.094Z,101172.81
2023-04-28T00:54:59.705Z,101180.19
2023-04-28T00:57:26.237Z,101174.38
2023-04-28T00:59:53.040Z,101168.81
2023-04-28T01:02:19.993Z,101164.69
2023-04-28T01:04:47.137Z,101170.66
2023-04-28T01:07:13.613Z,101165.38
2023-04-28T01:09:39.989Z,101163.88
2023-04-28T01:12:06.744Z,101156.53
2023-04-28T01:14:33.985Z,101150.31
2023-04-28T01:17:00.695Z,101155.78
2023-04-28T01:19:27.906Z,101149.47
2023-04-28T01:21:54.472Z,101150.28
2023-04-28T01:24:21.034Z,101152.84
2023-04-28T01:26:47.590Z,101165.47
2023-04-28T01:29:14.144Z,101164.22
2023-04-28T01:31:41.114Z,101160.84
2023-04-28T01:34:07.900Z,101159.31
2023-04-28T01:36:37.242Z,101150.13
2023-04-28T01:39:04.649Z,101150.28
2023-04-28T01:41:31.380Z,101154.41
2023-04-28T01:43:57.994Z,101150.78
2023-04-28T01:46:24.442Z,101158.81
2023-04-28T01:48:50.838Z,101158.91
2023-04-28T01:51:17.341Z,101156.34
2023-04-28T01:53:43.755Z,101165.38
2023-04-28T01:56:10.248Z,101170.44
2023-04-28T01:58:36.691Z,101173.78
2023-04-28T02:01:03.149Z,101187.47
2023-04-28T02:03:29.672Z,101178.44
2023-04-28T02:05:56.472Z,101183.22
2023-04-28T02:08:22.907Z,101180.63
2023-04-28T02:10:49.346Z,101177.91
2023-04-28T02:13:17.180Z,101179.19
2023-04-28T02:15:44.249Z,101178.78
2023-04-28T02:18:11.250Z,101177.91
2023-04-28T02:20:37.727Z,101174.81
2023-04-28T02:23:04.197Z,101182.31
2023-04-28T02:25:30.619Z,101186.28
2023-04-28T02:27:57.420Z,101191.47
2023-04-28T02:30:23.810Z,101187.59
2023-04-28T02:32:50.268Z,101194.94
2023-04-28T02:35:16.753Z,101191.06
2023-04-28T02:37:43.183Z,101196.31
2023-04-28T02:40:09.910Z,101196.81
2023-04-28T02:42:36.318Z,101199.78
2023-04-28T02:45:02.740Z,101190.22
2023-04-28T02:47:29.228Z,101197.16
2023-04-28T02:49:55.797Z,101196.66
2023-04-28T02:52:22.218Z,101197.78
2023-04-28T02:54:49.251Z,101201.66
2023-04-28T02:57:15.847Z,101203.69
2023-04-28T02:59:42.475Z,101204.31
2023-04-28T03:02:09.197Z,101212.56
2023-04-28T03:04:35.849Z,101207.38
2023-04-28T03:07:02.416Z,101201.88
2023-04-28T03:09:28.826Z,101191.16
2023-04-28T03:11:55.212Z,101188.09
2023-04-28T03:14:21.601Z,101183.66
2023-04-28T03:16:48.176Z,101170.72
2023-04-28T03:19:14.666Z,101177.25
2023-04-28T03:21:41.219Z,101171.53
2023-04-28T03:24:07.872Z,101168.38
2023-04-28T03:26:34.776Z,101163.50
2023-04-28T03:29:01.216Z,101159.50
2023-04-28T03:31:27.680Z,101163.13
2023-04-28T03:33:54.087Z,101153.91
2023-04-28T03:36:20.475Z,101146.19
2023-04-28T03:38:47.039Z,101145.44
2023-04-28T03:41:13.645Z,101151.69
2023-04-28T03:43:40.011Z,101159.88
2023-04-28T03:46:06.665Z,101168.19
2023-04-28T03:48:33.155Z,101169.44
2023-04-28T03:50:59.556Z,101171.53
2023-04-28T03:53:25.962Z,101179.91
2023-04-28T03:55:52.482Z,101183.94
2023-04-28T03:58:18.929Z,101181.78
2023-04-28T04:00:45.454Z,101183.56
2023-04-28T04:03:12.144Z,101186.09
2023-04-28T04:05:41.264Z,101199.31
2023-04-28T04:08:07.843Z,101188.38
2023-04-28T04:10:34.242Z,101189.25
2023-04-28T04:13:00.660Z,101195.72
2023-04-28T04:15:27.110Z,101204.47
2023-04-28T04:17:53.572Z,101202.28
2023-04-28T04:20:20.072Z,101205.91
2023-04-28T04:22:46.475Z,101199.72
2023-04-28T04:25:12.952Z,101209.47
2023-04-28T04:27:39.466Z,101208.13
2023-04-28T04:30:07.186Z,101206.28
2023-04-28T04:32:33.639Z,101198.91
2023-04-28T04:35:00.241Z,101205.44
2023-04-28T04:37:27.012Z,101209.69
2023-04-28T04:39:53.391Z,101197.44
2023-04-28T04:42:25.479Z,101205.44
2023-04-28T04:44:52.330Z,101215.13
2023-04-28T04:47:19.122Z,101209.50
2023-04-28T04:49:45.656Z,101209.50
2023-04-28T04:52:12.051Z,101215.28
2023-04-28T04:54:38.416Z,101202.81
2023-04-28T04:57:05.126Z,101194.88
2023-04-28T04:59:31.677Z,101200.50
2023-04-28T05:01:58.141Z,101199.88
2023-04-28T05:04:24.668Z,101205.31
2023-04-28T05:06:51.541Z,101207.38
2023-04-28T05:09:18.025Z,101199.31
2023-04-28T05:11:45.704Z,101203.34
2023-04-28T05:14:12.101Z,101203.13
2023-04-28T05:16:39.311Z,101203.13
2023-04-28T05:19:05.981Z,101204.44
2023-04-28T05:21:32.667Z,101210.63
2023-04-28T05:23:59.072Z,101201.38
2023-04-28T05:26:26.076Z,101200.88
2023-04-28T05:28:52.579Z,101202.13
2023-04-28T05:31:19.090Z,101205.81
2023-04-28T05:33:45.948Z,101215.53
2023-04-28T05:36:13.016Z,101207.44
2023-04-28T05:38:39.530Z,101211.50
2023-04-28T05:41:06.142Z,101204.41
2023-04-28T05:43:32.544Z,101218.34
2023-04-28T05:46:00.299Z,101225.63
2023-04-28T05:48:27.055Z,101231.03
2023-04-28T05:50:53.616Z,101235.72
2023-04-28T05:53:20.336Z,101231.09
2023-04-28T05:55:46.913Z,101244.00
2023-04-28T05:58:13.346Z,101238.06
2023-04-28T06:00:39.758Z,101234.56
2023-04-28T06:03:06.903Z,101238.94
2023-04-28T06:05:33.710Z,101241.53
2023-04-28T06:08:00.247Z,101249.03
2023-04-28T06:10:26.745Z,101238.88
2023-04-28T06:12:53.180Z,101241.72
2023-04-28T06:15:19.597Z,101245.47
2023-04-28T06:17:46.226Z,101248.50
2023-04-28T06:20:13.903Z,101249.16
2023-04-28T06:22:41.357Z,101252.16
2023-04-28T06:25:08.349Z,101256.31
2023-04-28T06:27:34.818Z,101257.34
2023-04-28T06:30:01.280Z,101258.81
2023-04-28T06:32:27.716Z,101262.09
2023-04-28T06:34:54.124Z,101264.44
2023-04-28T06:37:20.742Z,101274.94
2023-04-28T06:39:47.774Z,101277.78
2023-04-28T06:42:18.214Z,101277.66
2023-04-28T06:44:45.526Z,101273.84
2023-04-28T06:47:12.044Z,101268.47
2023-04-28T06:49:38.464Z,101264.84
2023-04-28T06:52:04.915Z,101269.50
2023-04-28T06:54:31.908Z,101267.06
2023-04-28T06:56:58.357Z,101267.19
2023-04-28T06:59:24.736Z,101265.91
2023-04-28T07:01:51.194Z,101263.50
2023-04-28T07:04:18.481Z,101253.09
2023-04-28T07:06:45.306Z,101259.84
2023-04-28T07:09:11.769Z,101251.81
2023-04-28T07:11:38.194Z,101252.22
2023-04-28T07:14:04.624Z,101255.16
2023-04-28T07:16:31.103Z,101251.41
2023-04-28T07:18:57.575Z,101246.75
2023-04-28T07:21:23.969Z,101245.47
2023-04-28T07:23:50.416Z,101244.44
2023-04-28T07:26:16.932Z,101246.13
2023-04-28T07:28:44.384Z,101242.59
2023-04-28T07:31:11.330Z,101249.84
2023-04-28T07:33:37.738Z,101237.94
2023-04-28T07:36:04.740Z,101239.22
2023-04-28T07:38:31.320Z,101228.34
2023-04-28T07:40:57.846Z,101229.81
2023-04-28T07:43:24.427Z,101227.59
2023-04-28T07:45:50.955Z,101230.06
2023-04-28T07:48:17.595Z,101219.03
2023-04-28T07:50:44.167Z,101213.09
2023-04-28T07:53:10.625Z,101217.19
2023-04-28T07:55:37.341Z,101218.78
2023-04-28T07:58:03.780Z,101234.78
2023-04-28T08:00:30.398Z,101224.19
2023-04-28T08:02:57.761Z,101230.19
2023-04-28T08:05:24.672Z,101236.53
2023-04-28T08:07:51.373Z,101232.06
2023-04-28T08:10:17.927Z,101226.91
2023-04-28T08:12:45.377Z,101223.78
2023-04-28T08:15:12.166Z,101214.94
2023-04-28T08:17:39.098Z,101220.41
2023-04-28T08:20:06.788Z,101211.22
2023-04-28T08:22:33.237Z,101213.06
2023-04-28T08:24:59.694Z,101222.91
2023-04-28T08:27:26.210Z,101226.38
2023-04-28T08:29:52.902Z,101225.34
2023-04-28T08:32:19.498Z,101226.59
2023-04-28T08:34:45.911Z,101227.41
2023-04-28T08:37:12.391Z,101213.28
2023-04-28T08:39:38.798Z,101227.19
2023-04-28T08:42:05.621Z,101230.47
2023-04-28T08:44:39.839Z,101229.53
2023-04-28T08:47:14.134Z,101233.59
2023-04-28T08:49:41.401Z,101241.28
2023-04-28T08:52:16.733Z,101244.22
2023-04-28T08:54:44.227Z,101241.09
2023-04-28T08:57:11.326Z,101237.75
2023-04-28T08:59:40.055Z,101246.72
2023-04-28T09:02:08.711Z,101236.03
2023-04-28T09:04:35.570Z,101235.09
2023-04-28T09:07:02.300Z,101228.19
2023-04-28T09:09:33.981Z,101224.69
2023-04-28T09:12:04.103Z,101224.28
2023-04-28T09:14:35.368Z,101218.06
2023-04-28T09:17:03.194Z,101217.78
2023-04-28T09:19:37.641Z,101217.94
2023-04-28T09:22:21.778Z,101214.59
2023-04-28T09:24:53.454Z,101209.81
2023-04-28T09:27:27.971Z,101208.78
2023-04-28T09:29:54.749Z,101201.53
2023-04-28T09:32:22.816Z,101203.94
2023-04-28T09:34:51.597Z,101206.72
2023-04-28T09:37:20.291Z,101197.72
2023-04-28T09:39:51.394Z,101202.88
2023-04-28T09:42:34.076Z,101192.13
2023-04-28T09:45:14.164Z,101183.47
2023-04-28T09:47:42.809Z,101181.44
2023-04-28T09:50:14.244Z,101177.75
2023-04-28T09:52:59.637Z,101177.13
2023-04-28T09:55:28.278Z,101181.00
2023-04-28T09:57:55.166Z,101175.31
2023-04-28T10:00:23.039Z,101168.31
2023-04-28T10:02:50.529Z,101164.75
2023-04-28T10:05:17.285Z,101167.75
2023-04-28T10:07:44.445Z,101166.88
2023-04-28T10:10:14.656Z,101170.03
2023-04-28T10:12:41.894Z,101163.72
2023-04-28T10:15:10.243Z,101160.38
2023-04-28T10:17:37.044Z,101154.94
2023-04-28T10:20:05.087Z,101162.84
2023-04-28T10:22:52.854Z,101157.72
2023-04-28T10:25:29.906Z,101159.41
2023-04-28T10:27:58.543Z,101155.63
2023-04-28T10:30:29.228Z,101151.75
2023-04-28T10:33:26.823Z,101156.91
2023-04-28T10:35:53.740Z,101153.84
2023-04-28T10:38:21.907Z,101154.50
2023-04-28T10:40:53.916Z,101158.16
2023-04-28T10:43:29.636Z,101157.78
2023-04-28T10:46:02.086Z,101158.28
2023-04-28T10:48:34.812Z,101151.81
2023-04-28T10:51:04.402Z,101136.28
2023-04-28T10:53:43.451Z,101137.88
2023-04-28T10:56:15.438Z,101136.72
2023-04-28T10:58:43.769Z,101132.81
2023-04-28T11:01:22.436Z,101128.50
2023-04-28T11:04:02.274Z,101114.22
2023-04-28T11:06:36.350Z,101114.78
2023-04-28T11:09:24.062Z,101107.59
2023-04-28T11:12:03.636Z,101105.47
2023-04-28T11:14:30.093Z,101104.25
2023-04-28T11:17:04.888Z,101099.50
2023-04-28T11:19:46.194Z,101092.09
2023-04-28T11:22:20.477Z,101096.31
2023-04-28T11:25:03.648Z,101090.31
2023-04-28T11:27:32.280Z,101090.53
2023-04-28T11:29:59.904Z,101074.50
2023-04-28T11:32:28.773Z,101077.09
2023-04-28T11:34:55.431Z,101076.63
2023-04-28T11:37:22.863Z,101069.44
2023-04-28T11:39:55.152Z,101072.69
2023-04-28T11:42:21.598Z,101061.00
2023-04-28T11:44:52.964Z,101060.03
2023-04-28T11:47:30.507Z,101045.16
2023-04-28T11:49:57.780Z,101041.69
2023-04-28T11:52:24.462Z,101041.06
2023-04-28T11:55:00.055Z,101038.84
2023-04-28T11:57:26.934Z,101030.53
2023-04-28T11:59:53.649Z,101028.72
2023-04-28T12:02:30.251Z,101021.09
2023-04-28T12:04:57.310Z,101020.38
2023-04-28T12:07:24.555Z,101015.31
2023-04-28T12:10:11.224Z,101010.72
2023-04-28T12:12:49.773Z,101018.19
2023-04-28T12:15:19.507Z,101011.69
2023-04-28T12:17:47.061Z,101000.22
2023-04-28T12:20:35.204Z,101002.22
2023-04-28T12:23:03.100Z,101003.94
2023-04-28T12:25:29.761Z,101004.16
2023-04-28T12:27:59.441Z,101007.84
2023-04-28T12:30:29.261Z,101009.69
2023-04-28T12:32:56.395Z,101007.91
2023-04-28T12:35:24.789Z,101012.97
2023-04-28T12:37:52.972Z,101009.06
2023-04-28T12:40:19.495Z,101011.00
2023-04-28T12:42:46.032Z,101013.41
2023-04-28T12:45:12.839Z,100996.06
2023-04-28T12:47:39.730Z,100998.84
2023-04-28T12:50:06.795Z,100991.59
2023-04-28T12:52:34.652Z,100987.34
2023-04-28T12:55:01.477Z,100989.47
2023-04-28T12:57:28.891Z,100988.16
2023-04-28T12:59:57.099Z,100984.59
2023-04-28T13:02:24.175Z,100984.88
2023-04-28T13:04:52.107Z,100992.72
2023-04-28T13:07:19.113Z,100989.84
2023-04-28T13:09:45.968Z,100983.63
2023-04-28T13:12:13.610Z,100973.84
2023-04-28T13:14:40.100Z,100965.25
2023-04-28T13:17:06.598Z,100967.19
2023-04-28T13:19:34.245Z,100955.03
2023-04-28T13:22:01.584Z,100949.13
2023-04-28T13:24:28.024Z,100939.09
2023-04-28T13:26:55.567Z,100945.94
2023-04-28T13:29:22.557Z,100939.09
2023-04-28T13:31:49.046Z,100930.38
2023-04-28T13:34:18.939Z,100924.06
2023-04-28T13:36:45.807Z,100928.16
2023-04-28T13:39:14.372Z,100914.94
2023-04-28T13:41:40.997Z,100912.19
2023-04-28T13:44:07.524Z,100915.84
2023-04-28T13:46:34.004Z,100903.25
2023-04-28T13:49:00.466Z,100893.19
2023-04-28T13:51:28.646Z,100891.25
2023-04-28T13:53:55.675Z,100898.31
2023-04-28T13:56:22.126Z,100893.69
2023-04-28T13:58:49.178Z,100887.69
2023-04-28T14:01:15.741Z,100885.34
2023-04-28T14:03:44.088Z,100876.66
2023-04-28T14:06:11.501Z,100872.25
2023-04-28T14:08:38.262Z,100881.19
2023-04-28T14:11:05.835Z,100883.28
2023-04-28T14:13:36.316Z,100887.69
2023-04-28T14:16:03.159Z,100884.06
2023-04-28T14:18:29.810Z,100885.09
2023-04-28T14:20:56.552Z,100877.66
2023-04-28T14:23:23.201Z,100873.19
2023-04-28T14:25:50.369Z,100871.66
2023-04-28T14:28:17.157Z,100866.16
2023-04-28T14:30:44.054Z,100861.81
2023-04-28T14:33:10.663Z,100858.72
2023-04-28T14:35:37.519Z,100861.59
2023-04-28T14:38:04.330Z,100863.19
2023-04-28T14:40:31.325Z,100866.41
2023-04-28T14:42:57.974Z,100860.59
2023-04-28T14:45:24.581Z,100854.88
2023-04-28T14:47:51.250Z,100846.03
2023-04-28T14:50:18.511Z,100842.88
2023-04-28T14:52:45.107Z,100858.09
2023-04-28T14:55:11.808Z,100857.28
2023-04-28T14:57:38.347Z,100847.16
2023-04-28T15:00:07.245Z,100832.09
2023-04-28T15:02:34.250Z,100841.91
2023-04-28T15:05:00.957Z,100840.66
2023-04-28T15:07:33.470Z,100842.50
2023-04-28T15:10:00.639Z,100836.38
2023-04-28T15:12:30.189Z,100824.41
2023-04-28T15:14:57.005Z,100828.22
2023-04-28T15:17:23.729Z,100826.50
2023-04-28T15:19:50.157Z,100832.66
2023-04-28T15:22:17.007Z,100826.72
2023-04-28T15:24:46.762Z,100820.78
2023-04-28T15:27:13.404Z,100817.38
2023-04-28T15:29:40.053Z,100810.53
2023-04-28T15:32:06.905Z,100811.41
2023-04-28T15:34:33.813Z,100814.81
2023-04-28T15:37:01.324Z,100802.56
2023-04-28T15:39:28.617Z,100812.31
2023-04-28T15:41:56.381Z,100807.97
2023-04-28T15:44:23.076Z,100800.78
2023-04-28T15:46:51.700Z,100799.66
2023-04-28T15:49:18.167Z,100800.19
2023-04-28T15:51:45.084Z,100802.00
2023-04-28T15:54:11.694Z,100798.69
2023-04-28T15:56:38.134Z,100787.09
2023-04-28T15:59:04.746Z,100800.81
2023-04-28T16:01:31.205Z,100801.56
2023-04-28T16:03:58.162Z,100799.97
2023-04-28T16:06:25.490Z,100797.66
2023-04-28T16:08:52.044Z,100802.59
2023-04-28T16:11:20.304Z,100799.00
2023-04-28T16:13:46.802Z,100796.47
2023-04-28T16:16:13.337Z,100794.53
2023-04-28T16:18:39.814Z,100796.16
2023-04-28T16:21:06.496Z,100790.59
2023-04-28T16:23:33.245Z,100794.72
2023-04-28T16:25:59.647Z,100790.38
2023-04-28T16:28:26.980Z,100782.44
2023-04-28T16:30:53.426Z,100781.56
2023-04-28T16:33:19.821Z,100773.16
2023-04-28T16:35:53.659Z,100762.31
2023-04-28T16:38:20.605Z,100758.19
2023-04-28T16:40:47.075Z,100753.53
2023-04-28T16:43:13.534Z,100751.34
2023-04-28T16:45:40.034Z,100750.91
2023-04-28T16:48:07.049Z,100755.38
2023-04-28T16:50:33.707Z,100756.56
2023-04-28T16:53:00.122Z,100757.38
2023-04-28T16:55:26.691Z,100751.94
2023-04-28T16:57:53.086Z,100742.00
2023-04-28T17:00:20.229Z,100744.50
2023-04-28T17:02:46.939Z,100751.38
2023-04-28T17:05:13.954Z,100746.00
2023-04-28T17:07:40.687Z,100751.06
2023-04-28T17:10:07.661Z,100755.31
2023-04-28T17:12:34.144Z,100753.47
2023-04-28T17:15:00.621Z,100751.69
2023-04-28T17:17:27.204Z,100749.94
2023-04-28T17:19:53.945Z,100747.22
2023-04-28T17:22:20.360Z,100750.50
2023-04-28T17:24:46.781Z,100751.06
2023-04-28T17:27:14.632Z,100733.38
2023-04-28T17:29:42.663Z,100726.44
2023-04-28T17:32:09.215Z,100728.06
2023-04-28T17:34:35.657Z,100726.38
2023-04-28T17:37:02.096Z,100736.84
2023-04-28T17:39:28.497Z,100735.81
2023-04-28T17:41:57.562Z,100738.34
2023-04-28T17:44:24.098Z,100740.09
2023-04-28T17:46:50.577Z,100729.53
2023-04-28T17:49:16.973Z,100732.03
2023-04-28T17:51:43.399Z,100727.38
2023-04-28T17:54:10.341Z,100724.63
2023-04-28T17:56:38.348Z,100721.03
2023-04-28T17:59:06.000Z,100723.41
2023-04-28T18:01:34.830Z,100717.66
2023-04-28T18:04:01.377Z,100723.41
2023-04-28T18:06:29.992Z,100724.91
2023-04-28T18:08:56.408Z,100734.06
2023-04-28T18:11:23.306Z,100722.63
2023-04-28T18:13:49.770Z,100720.75
2023-04-28T18:16:16.262Z,100733.44
2023-04-28T18:18:42.680Z,100727.66
2023-04-28T18:21:09.567Z,100732.94
2023-04-28T18:23:36.039Z,100735.03
2023-04-28T18:26:02.907Z,100730.84
2023-04-28T18:28:29.437Z,100734.09
2023-04-28T18:30:55.867Z,100731.09
2023-04-28T18:33:28.413Z,100745.91
2023-04-28T18:35:59.781Z,100757.78
2023-04-28T18:38:26.440Z,100749.38
2023-04-28T18:40:52.866Z,100758.91
2023-04-28T18:43:19.282Z,100759.00
2023-04-28T18:45:45.796Z,100762.34
2023-04-28T18:48:12.448Z,100765.66
2023-04-28T18:50:39.108Z,100769.63
2023-04-28T18:53:06.616Z,100778.13
2023-04-28T18:55:33.563Z,100779.78
2023-04-28T18:58:01.791Z,100788.41
2023-04-28T19:00:28.335Z,100787.25
2023-04-28T19:02:54.820Z,100773.50
2023-04-28T19:05:21.461Z,100775.66
2023-04-28T19:07:47.863Z,100787.53
2023-04-28T19:10:14.274Z,100794.53
2023-04-28T19:12:40.954Z,100782.22
2023-04-28T19:15:07.810Z,100783.50
2023-04-28T19:17:34.379Z,100783.84
2023-04-28T19:20:00.873Z,100788.06
2023-04-28T19:22:38.583Z,100785.47
2023-04-28T19:25:07.269Z,100779.44
2023-04-28T19:27:36.007Z,100777.44
2023-04-28T19:30:04.135Z,100780.06
2023-04-28T19:32:30.802Z,100777.66
2023-04-28T19:34:57.341Z,100780.25
2023-04-28T19:37:25.116Z,100781.78
2023-04-28T19:39:51.857Z,100784.56
2023-04-28T19:42:18.876Z,100793.63
2023-04-28T19:44:46.545Z,100784.84
2023-04-28T19:47:13.380Z,100783.13
2023-04-28T19:49:42.084Z,100781.88
2023-04-28T19:52:10.192Z,100783.03
2023-04-28T19:54:38.655Z,100793.72
2023-04-28T19:57:05.345Z,100791.78
2023-04-28T19:59:31.985Z,100797.75
2023-04-28T20:01:58.652Z,100798.34
2023-04-28T20:04:26.008Z,100798.25
2023-04-28T20:06:52.504Z,100793.44
2023-04-28T20:09:19.045Z,100787.63
2023-04-28T20:11:45.603Z,100787.22
2023-04-28T20:14:12.015Z,100785.41
2023-04-28T20:16:38.523Z,100785.63
2023-04-28T20:19:04.937Z,100796.03
2023-04-28T20:21:31.704Z,100794.44
2023-04-28T20:23:58.257Z,100805.00
2023-04-28T20:26:24.857Z,100803.22
2023-04-28T20:28:51.320Z,100784.25
2023-04-28T20:31:17.722Z,100781.69
2023-04-28T20:33:44.194Z,100788.69
2023-04-28T20:36:12.640Z,100791.69
2023-04-28T20:38:39.058Z,100800.69
2023-04-28T20:41:07.742Z,100786.06
2023-04-28T20:43:34.314Z,100795.97
2023-04-28T20:46:00.934Z,100794.94
2023-04-28T20:48:29.133Z,100789.94
2023-04-28T20:50:58.086Z,100793.84
2023-04-28T20:53:24.523Z,100787.88
2023-04-28T20:55:51.579Z,100800.09
2023-04-28T20:58:18.063Z,100788.06
2023-04-28T21:00:44.578Z,100795.97
2023-04-28T21:03:15.741Z,100806.31
2023-04-28T21:05:44.510Z,100819.63
2023-04-28T21:08:11.398Z,100821.63
2023-04-28T21:10:38.593Z,100820.19
2023-04-28T21:13:05.384Z,100825.69
2023-04-28T21:15:41.418Z,100823.22
2023-04-28T21:18:07.990Z,100824.41
2023-04-28T21:20:34.530Z,100833.09
2023-04-28T21:23:01.052Z,100837.53
2023-04-28T21:25:28.268Z,100835.56
2023-04-28T21:27:55.273Z,100839.56
2023-04-28T21:30:22.194Z,100826.88
2023-04-28T21:32:48.743Z,100818.38
2023-04-28T21:35:16.184Z,100815.06
2023-04-28T21:37:42.735Z,100815.75
2023-04-28T21:40:09.521Z,100821.13
2023-04-28T21:42:36.232Z,100821.75
2023-04-28T21:45:02.739Z,100811.66
2023-04-28T21:47:29.797Z,100816.84
2023-04-28T21:49:56.277Z,100803.16
2023-04-28T21:52:22.685Z,100818.91
2023-04-28T21:54:49.074Z,100828.84
2023-04-28T21:57:15.822Z,100829.72
2023-04-28T21:59:42.365Z,100834.94
2023-04-28T22:02:09.074Z,100827.72
2023-04-28T22:04:36.032Z,100825.09
2023-04-28T22:07:02.643Z,100833.16
2023-04-28T22:09:29.172Z,100824.84
2023-04-28T22:11:55.719Z,100837.06
2023-04-28T22:14:39.590Z,100834.16
2023-04-28T22:17:07.460Z,100846.44
2023-04-28T22:19:34.061Z,100840.94
2023-04-28T22:22:00.528Z,100850.31
2023-04-28T22:24:27.716Z,100858.16
2023-04-28T22:26:54.816Z,100862.69
2023-04-28T22:29:21.532Z,100856.00
2023-04-28T22:31:48.044Z,100861.38
2023-04-28T22:34:14.547Z,100847.44
2023-04-28T22:36:42.053Z,100852.06
2023-04-28T22:39:08.576Z,100854.66
2023-04-28T22:41:34.956Z,100860.97
2023-04-28T22:44:01.387Z,100859.16
2023-04-28T22:46:28.614Z,100857.56
2023-04-28T22:48:55.215Z,100844.50
2023-04-28T22:51:21.787Z,100858.16
2023-04-28T22:53:48.640Z,100849.47
2023-04-28T22:56:15.695Z,100835.97
2023-04-28T22:58:42.250Z,100830.09
2023-04-28T23:01:09.201Z,100835.28
2023-04-28T23:03:36.065Z,100827.81
2023-04-28T23:06:02.631Z,100835.59
2023-04-28T23:08:29.083Z,100825.50
2023-04-28T23:10:58.923Z,100834.50
2023-04-28T23:13:25.499Z,100831.88
2023-04-28T23:15:52.038Z,100825.84
2023-04-28T23:18:18.742Z,100833.53
2023-04-28T23:20:48.687Z,100820.78
2023-04-28T23:23:15.190Z,100809.38
2023-04-28T23:25:42.898Z,100816.63
2023-04-28T23:28:10.182Z,100828.41
2023-04-28T23:30:36.657Z,100823.84
2023-04-28T23:33:03.127Z,100811.28
2023-04-28T23:35:29.575Z,100813.88
2023-04-28T23:37:56.260Z,100814.41
2023-04-28T23:40:22.663Z,100807.03
2023-04-28T23:42:49.078Z,100798.63
2023-04-28T23:45:15.882Z,100787.94
2023-04-28T23:47:42.277Z,100791.22
2023-04-28T23:50:09.782Z,100788.94
2023-04-28T23:52:40.238Z,100781.03
2023-04-28T23:55:12.873Z,100780.03
2023-04-28T23:57:39.862Z,100777.13
